Time;durP1;ratioP1;P1;durP2;ratioP2;P2;SDS_P1;SDS_P2;PMS_P1;PMS_P2;Temp;Humidity;BMP_temperature;BMP_pressure;BME280_temperature;BME280_humidity;BME280_pressure;Samples;Min_cycle;Max_cycle;Signal;HPM_P1;HPM_P2
2022/09/01 00:01:19;;;;;;;8.20;5.15;;;;;;;10.94;100.00;99381.56;1743872;82;21432;-75
2022/09/01 00:03:47;;;;;;;9.68;5.25;;;;;;;10.90;100.00;99378.61;1744619;81;21504;-72
2022/09/01 00:06:21;;;;;;;6.85;4.67;;;;;;;10.81;100.00;99384.72;1740201;81;20872;-74
2022/09/01 00:08:47;;;;;;;6.95;5.08;;;;;;;10.65;100.00;99387.83;1707486;82;21425;-72
2022/09/01 00:11:14;;;;;;;;;;;;;;;10.59;100.00;99388.88;1687266;83;20937;-73
2022/09/01 00:13:43;;;;;;;7.22;5.75;;;;;;;10.47;100.00;99387.16;1682427;83;20103;-73
2022/09/01 00:16:15;;;;;;;8.55;6.30;;;;;;;10.48;100.00;99384.77;1678338;83;20922;-73
2022/09/01 00:18:45;;;;;;;9.88;5.87;;;;;;;10.46;100.00;99382.05;1710829;83;20902;-72
2022/09/01 00:21:13;;;;;;;5.60;4.85;;;;;;;10.41;100.00;99376.14;1683930;83;21182;-75
2022/09/01 00:23:42;;;;;;;9.35;6.45;;;;;;;10.28;100.00;99379.23;1683382;83;20937;-73
2022/09/01 00:26:10;;;;;;;;;;;;;;;10.22;100.00;99382.92;1678019;83;20893;-73
2022/09/01 00:28:39;;;;;;;9.58;5.55;;;;;;;10.19;100.00;99385.58;1683729;83;20116;-72
2022/09/01 00:31:09;;;;;;;8.03;5.20;;;;;;;10.22;100.00;99383.72;1676668;84;20981;-73
2022/09/01 00:33:38;;;;;;;6.72;4.67;;;;;;;10.28;100.00;99381.38;1698834;83;21149;-73
2022/09/01 00:36:07;;;;;;;6.28;4.80;;;;;;;10.30;100.00;99383.81;1703010;84;20946;-73
2022/09/01 00:38:36;;;;;;;5.70;4.53;;;;;;;10.29;100.00;99382.20;1677596;83;20905;-74
2022/09/01 00:41:06;;;;;;;5.20;4.22;;;;;;;10.27;100.00;99392.35;1678252;84;20906;-73
2022/09/01 00:43:53;;;;;;;9.10;5.08;;;;;;;10.22;100.00;99393.65;1678042;84;20976;-73
2022/09/01 00:46:24;;;;;;;8.73;5.45;;;;;;;10.24;100.00;99392.84;1679235;83;21061;-72
2022/09/01 00:49:03;;;;;;;7.92;5.35;;;;;;;10.22;100.00;99388.28;1678287;83;21005;-72
2022/09/01 00:51:32;;;;;;;5.25;4.75;;;;;;;10.21;100.00;99386.11;1675189;83;21401;-73
2022/09/01 00:54:01;;;;;;;7.05;5.08;;;;;;;10.23;100.00;99389.89;1678770;83;20902;-74
2022/09/01 00:56:29;;;;;;;5.65;4.87;;;;;;;10.10;100.00;99380.39;1677529;83;20989;-75
2022/09/01 00:58:58;;;;;;;9.13;4.95;;;;;;;9.99;100.00;99384.84;1682336;83;21140;-73
2022/09/01 01:01:27;;;;;;;12.28;4.70;;;;;;;9.90;100.00;99392.25;1654672;85;20897;-73
2022/09/01 01:03:56;;;;;;;7.78;4.87;;;;;;;9.74;100.00;99387.28;1682101;83;20970;-73
2022/09/01 01:06:27;;;;;;;6.05;5.25;;;;;;;9.74;100.00;99382.72;1680062;83;20945;-73
2022/09/01 01:08:59;;;;;;;8.30;5.60;;;;;;;9.75;100.00;99387.55;1680091;83;20937;-73
2022/09/01 01:11:31;;;;;;;5.65;4.72;;;;;;;9.78;100.00;99391.09;1678171;83;21061;-73
2022/09/01 01:18:07;;;;;;;6.05;4.85;;;;;;;9.68;100.00;99381.06;1703781;82;21515;-72
2022/09/01 01:23:35;;;;;;;9.15;5.47;;;;;;;9.51;100.00;99371.77;1738485;80;20092;-73
2022/09/01 01:26:05;;;;;;;6.30;5.50;;;;;;;9.51;100.00;99374.45;1740619;80;21198;-74
2022/09/01 01:28:38;;;;;;;9.53;6.10;;;;;;;9.42;100.00;99373.27;1713431;81;20817;-73
2022/09/01 01:31:11;;;;;;;8.13;6.35;;;;;;;9.33;100.00;99374.76;1735534;80;20942;-72
2022/09/01 01:33:45;;;;;;;10.75;6.25;;;;;;;9.36;100.00;99364.91;1736914;80;21034;-72
2022/09/01 01:36:31;;;;;;;10.05;5.97;;;;;;;9.41;100.00;99372.46;1734833;81;20971;-72
2022/09/01 01:38:54;;;;;;;9.13;6.30;;;;;;;9.42;100.00;99371.39;1738000;81;21197;-72
2022/09/01 01:41:23;;;;;;;7.15;5.53;;;;;;;9.39;100.00;99375.11;1739282;81;20953;-73
2022/09/01 01:43:52;;;;;;;14.05;7.28;;;;;;;9.36;100.00;99370.27;1738450;80;20894;-74
2022/09/01 01:46:24;;;;;;;8.50;6.28;;;;;;;9.30;100.00;99373.39;1739113;81;20864;-74
2022/09/01 01:48:52;;;;;;;8.95;6.65;;;;;;;9.30;100.00;99365.89;1739177;81;20942;-72
2022/09/01 01:51:27;;;;;;;23.90;5.92;;;;;;;9.20;100.00;99366.57;1743358;81;21560;-72
2022/09/01 01:53:52;;;;;;;7.37;5.83;;;;;;;9.17;100.00;99366.55;1736678;80;21480;-72
2022/09/01 01:56:25;;;;;;;9.10;5.70;;;;;;;9.17;100.00;99358.51;1737067;81;20900;-73
2022/09/01 01:58:56;;;;;;;9.55;5.25;;;;;;;9.22;100.00;99359.11;1734583;80;20950;-73
2022/09/01 02:01:27;;;;;;;6.62;5.10;;;;;;;9.19;100.00;99360.95;1736939;81;21085;-73
2022/09/01 02:03:57;;;;;;;9.43;5.20;;;;;;;9.11;100.00;99363.50;1737232;80;21173;-73
2022/09/01 02:06:26;;;;;;;13.55;6.15;;;;;;;9.00;100.00;99358.56;1738420;80;20891;-73
2022/09/01 02:08:57;;;;;;;8.85;5.72;;;;;;;8.99;100.00;99360.14;1741468;81;20912;-73
2022/09/01 02:11:27;;;;;;;5.62;5.10;;;;;;;9.04;100.00;99359.39;1739091;81;21408;-73
2022/09/01 02:13:56;;;;;;;;;;;;;;;9.06;100.00;99363.45;1742390;80;21527;-73
2022/09/01 02:16:25;;;;;;;7.65;6.53;;;;;;;9.03;100.00;99364.48;1734741;80;21195;-73
2022/09/01 02:18:54;;;;;;;6.42;5.75;;;;;;;8.89;100.00;99360.00;1738623;82;20889;-72
2022/09/01 02:21:23;;;;;;;7.22;5.00;;;;;;;8.90;100.00;99357.62;1740130;80;20902;-73
2022/09/01 02:24:00;;;;;;;5.78;5.12;;;;;;;8.90;100.00;99362.45;1738786;81;20922;-72
2022/09/01 02:26:37;;;;;;;6.40;5.80;;;;;;;8.92;100.00;99351.51;1738827;80;20937;-72
2022/09/01 02:29:16;;;;;;;12.78;6.20;;;;;;;8.97;100.00;99362.28;1737932;82;21040;-73
2022/09/01 02:31:41;;;;;;;6.87;5.87;;;;;;;8.91;100.00;99358.70;1738905;81;20960;-72
2022/09/01 02:34:12;;;;;;;8.23;5.70;;;;;;;9.03;100.00;99364.48;1739787;80;20941;-73
2022/09/01 02:36:47;;;;;;;8.70;5.53;;;;;;;9.05;100.00;99363.17;1742335;80;20937;-73
2022/09/01 02:39:22;;;;;;;8.55;5.90;;;;;;;9.00;100.00;99368.47;1740797;80;21063;-72
2022/09/01 02:41:50;;;;;;;6.30;5.47;;;;;;;8.97;100.00;99364.95;1736986;80;21091;-73
2022/09/01 02:44:21;;;;;;;7.58;5.45;;;;;;;8.90;100.00;99360.31;1705278;82;20893;-73
2022/09/01 02:46:50;;;;;;;9.23;5.78;;;;;;;8.86;100.00;99365.33;1684680;84;20918;-73
2022/09/01 02:49:24;;;;;;;9.03;6.40;;;;;;;8.86;100.00;99367.20;1676768;84;21055;-75
2022/09/01 02:51:52;;;;;;;10.98;7.65;;;;;;;8.87;100.00;99367.47;1700265;83;20965;-73
2022/09/01 02:54:24;;;;;;;15.83;9.48;;;;;;;8.88;100.00;99367.77;1700595;83;21088;-73
2022/09/01 02:56:53;;;;;;;14.43;9.10;;;;;;;8.89;100.00;99370.71;1704708;83;20890;-72
2022/09/01 02:59:26;;;;;;;15.23;6.80;;;;;;;8.99;100.00;99371.68;1701428;83;20878;-74
2022/09/01 03:01:56;;;;;;;17.25;9.30;;;;;;;9.03;100.00;99372.52;1683931;83;20969;-72
2022/09/01 03:04:25;;;;;;;10.68;8.10;;;;;;;9.11;100.00;99375.55;1676294;84;20894;-73
2022/09/01 03:06:57;;;;;;;9.93;8.00;;;;;;;9.08;100.00;99373.92;1685373;83;21199;-73
2022/09/01 03:09:25;;;;;;;10.45;7.00;;;;;;;9.18;100.00;99374.84;1683829;83;20874;-73
2022/09/01 03:11:54;;;;;;;9.68;7.83;;;;;;;9.15;100.00;99375.89;1677485;85;20925;-74
2022/09/01 03:14:24;;;;;;;7.62;5.97;;;;;;;9.15;100.00;99383.38;1661722;84;20968;-72
2022/09/01 03:16:54;;;;;;;8.53;6.90;;;;;;;9.16;100.00;99385.02;1678148;84;20985;-72
2022/09/01 03:19:23;;;;;;;12.18;6.00;;;;;;;9.15;100.00;99379.36;1685627;85;21942;-72
2022/09/01 03:21:51;;;;;;;15.00;6.12;;;;;;;9.15;100.00;99388.73;1709380;81;20942;-72
2022/09/01 03:24:23;;;;;;;8.60;6.65;;;;;;;9.19;100.00;99388.53;1703668;83;21477;-72
2022/09/01 03:26:52;;;;;;;8.98;6.45;;;;;;;9.22;100.00;99390.70;1706178;82;21010;-73
2022/09/01 03:29:21;;;;;;;7.87;5.45;;;;;;;9.23;100.00;99393.69;1716636;82;20934;-72
2022/09/01 03:31:50;;;;;;;5.45;4.95;;;;;;;9.26;100.00;99395.05;1703684;82;21214;-72
2022/09/01 03:34:20;;;;;;;;;;;;;;;9.31;100.00;99396.95;1712539;82;20901;-73
2022/09/01 03:36:50;;;;;;;5.55;4.75;;;;;;;9.34;100.00;99397.28;1682568;83;20098;-73
2022/09/01 03:39:23;;;;;;;6.62;4.33;;;;;;;9.44;100.00;99393.38;1714256;81;20977;-72
2022/09/01 03:41:52;;;;;;;7.92;4.75;;;;;;;9.54;100.00;99393.23;1713705;82;20930;-72
2022/09/01 03:44:21;;;;;;;7.17;4.55;;;;;;;9.63;100.00;99395.22;1712077;82;21119;-73
2022/09/01 03:46:50;;;;;;;8.10;4.40;;;;;;;9.76;100.00;99399.36;1712094;82;23812;-73
2022/09/01 03:49:26;;;;;;;5.80;5.20;;;;;;;9.93;100.00;99403.30;1712058;82;20930;-72
2022/09/01 03:51:52;;;;;;;5.28;4.00;;;;;;;10.06;100.00;99405.56;1707704;82;21008;-72
2022/09/01 03:54:23;;;;;;;6.65;3.70;;;;;;;10.22;100.00;99407.06;1713608;82;21445;-73
2022/09/01 03:56:51;;;;;;;9.53;3.50;;;;;;;10.29;100.00;99407.70;1711022;83;21218;-72
2022/09/01 03:59:21;;;;;;;4.72;4.00;;;;;;;10.40;100.00;99409.91;1712799;82;25791;-72
2022/09/01 04:05:44;;;;;;;8.10;3.80;;;;;;;10.56;100.00;99414.86;1715155;81;21516;-72
2022/09/01 04:08:14;;;;;;;4.62;4.15;;;;;;;10.56;100.00;99417.03;1708699;81;21009;-74
2022/09/01 04:10:48;;;;;;;7.65;4.25;;;;;;;10.50;100.00;99414.82;1713938;82;21254;-74
2022/09/01 04:13:30;;;;;;;3.77;3.35;;;;;;;10.41;100.00;99413.70;1721468;81;20885;-72
2022/09/01 04:15:59;;;;;;;19.30;5.58;;;;;;;10.33;100.00;99418.70;1737247;82;21436;-73
2022/09/01 04:18:29;;;;;;;8.90;5.17;;;;;;;10.32;100.00;99419.25;1734698;81;21770;-73
2022/09/01 04:20:58;;;;;;;7.85;4.70;;;;;;;10.26;100.00;99418.88;1681543;83;20941;-71
2022/09/01 04:27:39;;;;;;;;;;;;;;;10.26;100.00;99422.39;1742986;80;20929;-73
2022/09/01 04:30:04;;;;;;;4.53;3.52;;;;;;;10.25;100.00;99427.47;1731030;81;20099;-73
2022/09/01 04:32:36;;;;;;;5.80;3.55;;;;;;;10.22;100.00;99417.25;1730703;81;21480;-72
2022/09/01 04:35:07;;;;;;;4.60;3.90;;;;;;;10.27;100.00;99413.27;1710813;81;21068;-72
2022/09/01 04:37:36;;;;;;;12.30;4.83;;;;;;;10.43;100.00;99413.42;1727378;81;21218;-73
2022/09/01 04:40:06;;;;;;;6.12;5.20;;;;;;;10.66;100.00;99418.98;1712467;81;21496;-73
2022/09/01 04:42:35;;;;;;;26.45;6.10;;;;;;;11.04;100.00;99425.12;1737121;81;21448;-72
2022/09/01 04:45:09;;;;;;;5.17;4.08;;;;;;;11.11;100.00;99423.02;1678334;83;21393;-72
2022/09/01 04:47:36;;;;;;;5.08;3.90;;;;;;;11.10;100.00;99420.08;1726512;81;20976;-72
2022/09/01 04:50:16;;;;;;;7.17;3.40;;;;;;;11.22;100.00;99421.19;1734180;81;21443;-73
2022/09/01 04:53:05;;;;;;;6.00;3.62;;;;;;;11.40;100.00;99419.41;1731067;81;20933;-72
2022/09/01 04:55:38;;;;;;;9.90;3.87;;;;;;;12.08;100.00;99425.27;1733614;81;20886;-72
2022/09/01 04:58:07;;;;;;;6.92;3.77;;;;;;;12.48;100.00;99427.20;1711187;81;21500;-73
2022/09/01 05:00:35;;;;;;;5.75;3.47;;;;;;;12.38;100.00;99433.94;1731568;81;20866;-73
2022/09/01 05:03:04;;;;;;;5.53;3.42;;;;;;;12.30;100.00;99435.28;1695999;83;21720;-72
2022/09/01 05:05:43;;;;;;;8.35;3.55;;;;;;;12.27;100.00;99433.10;1684301;83;21483;-72
2022/09/01 05:08:15;;;;;;;6.78;3.47;;;;;;;12.27;100.00;99433.64;1682430;83;21480;-73
2022/09/01 05:10:50;;;;;;;6.20;3.52;;;;;;;12.30;100.00;99428.55;1735291;80;21420;-73
2022/09/01 05:13:22;;;;;;;5.12;3.67;;;;;;;12.31;100.00;99431.50;1721748;80;20950;-73
2022/09/01 05:16:02;;;;;;;5.80;3.65;;;;;;;12.33;100.00;99431.24;1703620;82;21235;-72
2022/09/01 05:18:31;;;;;;;12.82;3.67;;;;;;;12.40;100.00;99434.48;1685989;83;20854;-72
2022/09/01 05:21:09;;;;;;;9.15;3.90;;;;;;;12.54;100.00;99434.22;1696314;82;21501;-72
2022/09/01 05:23:41;;;;;;;27.77;6.90;;;;;;;12.58;100.00;99431.78;1684709;83;20945;-71
2022/09/01 05:26:16;;;;;;;8.25;3.40;;;;;;;12.50;100.00;99441.20;1721409;80;20900;-73
2022/09/01 05:28:47;;;;;;;6.92;3.60;;;;;;;12.56;100.00;99436.63;1735202;80;21122;-73
2022/09/01 05:31:18;;;;;;;9.65;6.70;;;;;;;12.51;100.00;99436.63;1728224;80;20905;-73
2022/09/01 05:33:48;;;;;;;7.25;6.58;;;;;;;12.52;100.00;99431.50;1741324;80;21489;-73
2022/09/01 05:36:19;;;;;;;26.90;7.37;;;;;;;12.67;100.00;99432.86;1724452;80;21550;-73
2022/09/01 05:38:48;;;;;;;8.53;5.10;;;;;;;13.11;100.00;99436.84;1728744;80;20906;-73
2022/09/01 05:41:19;;;;;;;12.07;5.37;;;;;;;13.77;100.00;99431.23;1731870;80;21075;-73
2022/09/01 05:43:50;;;;;;;8.23;4.28;;;;;;;14.10;100.00;99430.23;1711607;82;21436;-73
2022/09/01 05:46:22;;;;;;;11.28;4.12;;;;;;;14.43;100.00;99432.70;1684265;83;21000;-73
2022/09/01 05:48:53;;;;;;;14.63;4.28;;;;;;;14.53;100.00;99438.05;1732374;80;20918;-73
2022/09/01 05:51:25;;;;;;;10.93;4.15;;;;;;;14.54;100.00;99432.90;1724159;80;20938;-74
2022/09/01 05:53:57;;;;;;;7.25;4.20;;;;;;;14.82;100.00;99441.84;1723182;81;21186;-72
2022/09/01 05:56:26;;;;;;;15.88;4.12;;;;;;;15.35;100.00;99441.30;1734849;81;21175;-73
2022/09/01 05:58:58;;;;;;;12.28;4.30;;;;;;;15.58;100.00;99444.28;1727901;80;21571;-75
2022/09/01 06:01:27;;;;;;;10.08;4.17;;;;;;;15.69;100.00;99443.06;1739646;80;20949;-74
2022/09/01 06:03:56;;;;;;;9.43;3.87;;;;;;;15.85;100.00;99443.16;1731489;80;20912;-72
2022/09/01 06:06:29;;;;;;;7.25;3.77;;;;;;;16.08;100.00;99439.33;1742794;81;21168;-75
2022/09/01 06:08:58;;;;;;;12.70;4.25;;;;;;;16.52;100.00;99444.89;1733676;80;20970;-72
2022/09/01 06:11:27;;;;;;;9.68;4.20;;;;;;;16.74;97.89;99442.91;1741534;81;21453;-72
2022/09/01 06:13:57;;;;;;;25.43;18.35;;;;;;;17.25;93.85;99441.22;1709982;81;20859;-76
2022/09/01 06:16:27;;;;;;;66.10;40.80;;;;;;;17.52;80.49;99449.35;1695268;84;20942;-74
2022/09/01 06:18:57;;;;;;;39.35;23.90;;;;;;;17.30;81.02;99445.19;1687342;83;21472;-74
2022/09/01 06:21:25;;;;;;;17.87;8.98;;;;;;;17.21;78.02;99450.49;1685887;83;20953;-74
2022/09/01 06:23:54;;;;;;;7.95;4.53;;;;;;;17.41;76.64;99446.58;1685645;83;21413;-75
2022/09/01 06:26:27;;;;;;;210.95;81.40;;;;;;;17.64;71.60;99446.66;1685174;83;20937;-74
2022/09/01 06:29:00;;;;;;;221.55;102.15;;;;;;;17.74;69.85;99451.34;1684972;83;20877;-74
2022/09/01 06:31:37;;;;;;;525.70;305.83;;;;;;;18.07;69.20;99452.56;1683696;83;21102;-74
2022/09/01 06:34:04;;;;;;;223.10;114.30;;;;;;;18.26;65.48;99454.33;1655720;83;20920;-74
2022/09/01 06:36:39;;;;;;;361.82;200.35;;;;;;;18.28;64.17;99464.34;1707489;83;20898;-73
2022/09/01 06:39:08;;;;;;;131.80;55.48;;;;;;;18.00;61.76;99461.67;1641584;85;20960;-73
2022/09/01 06:41:37;;;;;;;50.08;20.77;;;;;;;17.99;61.78;99462.80;1657172;83;20977;-73
2022/09/01 06:44:09;;;;;;;26.35;10.85;;;;;;;18.26;61.64;99461.13;1704813;83;21103;-72
2022/09/01 06:46:39;;;;;;;25.80;7.97;;;;;;;18.73;59.49;99467.86;1683498;83;21432;-74
2022/09/01 06:49:10;;;;;;;15.35;4.20;;;;;;;18.71;59.62;99467.36;1686670;83;20904;-73
2022/09/01 06:51:37;;;;;;;181.70;84.07;;;;;;;18.72;58.35;99466.83;1703716;83;21075;-73
2022/09/01 06:54:06;;;;;;;182.07;91.63;;;;;;;18.77;58.07;99468.89;1689946;83;20993;-72
2022/09/01 06:56:35;;;;;;;1850.88;823.83;;;;;;;18.96;57.43;99464.61;1736432;80;21123;-74
2022/09/01 06:59:04;;;;;;;188.70;110.85;;;;;;;18.90;55.44;99469.12;1740024;81;21423;-73
2022/09/01 07:01:34;;;;;;;90.47;46.00;;;;;;;19.00;55.39;99467.49;1739655;82;21456;-73
2022/09/01 07:04:02;;;;;;;41.95;29.80;;;;;;;19.76;54.95;99475.50;1739573;81;21464;-73
2022/09/01 07:06:35;;;;;;;145.15;81.90;;;;;;;20.33;53.60;99477.34;1741994;81;21634;-73
2022/09/01 07:09:16;;;;;;;144.72;87.82;;;;;;;20.62;52.03;99473.98;1688593;82;21481;-73
2022/09/01 07:11:46;;;;;;;13.28;6.45;;;;;;;20.35;49.03;99476.46;1709114;82;20934;-73
2022/09/01 07:14:16;;;;;;;21.80;7.65;;;;;;;20.06;49.05;99487.98;1701095;82;20956;-74
2022/09/01 07:16:45;;;;;;;56.33;27.13;;;;;;;20.42;49.27;99485.53;1701428;82;21412;-72
2022/09/01 07:19:14;;;;;;;13.30;5.28;;;;;;;20.92;47.71;99483.64;1706498;83;20878;-74
2022/09/01 07:21:48;;;;;;;803.22;492.53;;;;;;;21.17;47.34;99485.52;1712835;81;21098;-74
2022/09/01 07:24:17;;;;;;;50.85;25.97;;;;;;;21.74;46.15;99479.45;1696665;81;21632;-73
2022/09/01 07:26:51;;;;;;;24.25;11.48;;;;;;;22.08;45.12;99482.53;1681339;83;21020;-79
2022/09/01 07:29:21;;;;;;;70.20;33.55;;;;;;;22.32;43.08;99481.91;1692624;82;20869;-72
2022/09/01 07:31:54;;;;;;;167.50;102.95;;;;;;;22.39;42.78;99482.72;1684440;83;20870;-73
2022/09/01 07:34:21;;;;;;;33.02;13.62;;;;;;;22.53;42.66;99485.18;1730477;80;21086;-72
2022/09/01 07:36:58;;;;;;;5.03;3.50;;;;;;;22.34;41.91;99481.01;1719079;80;20964;-73
2022/09/01 07:39:21;;;;;;;7.85;4.95;;;;;;;22.06;42.13;99483.42;1733836;80;20973;-76
2022/09/01 07:41:52;;;;;;;3.15;1.75;;;;;;;21.66;42.42;99483.83;1724589;80;21464;-74
2022/09/01 07:44:24;;;;;;;8.53;3.22;;;;;;;21.48;42.25;99478.20;1730363;81;20867;-73
2022/09/01 07:47:13;;;;;;;;;;;;;;;21.69;43.40;99477.70;1725310;80;21168;-72
2022/09/01 07:49:41;;;;;;;8.88;3.08;;;;;;;22.45;41.52;99484.13;1731045;80;20156;-73
2022/09/01 07:52:10;;;;;;;4.67;2.77;;;;;;;22.42;40.40;99482.86;1722125;80;21474;-73
2022/09/01 07:54:39;;;;;;;3.87;1.40;;;;;;;22.34;40.35;99483.74;1733054;80;20862;-72
2022/09/01 07:57:08;;;;;;;3.85;2.10;;;;;;;22.23;39.40;99480.59;1724490;81;20930;-73
2022/09/01 07:59:38;;;;;;;32.25;15.48;;;;;;;21.89;40.12;99484.91;1723807;82;21202;-75
2022/09/01 08:02:09;;;;;;;8.03;4.47;;;;;;;21.56;40.67;99491.83;1728117;81;21145;-73
2022/09/01 08:04:38;;;;;;;25.20;12.50;;;;;;;21.30;40.78;99480.98;1675511;83;21550;-73
2022/09/01 08:07:09;;;;;;;43.50;21.87;;;;;;;21.28;41.19;99483.23;1681690;83;20962;-72
2022/09/01 08:09:39;;;;;;;33.45;15.32;;;;;;;21.39;41.57;99485.08;1657417;85;20977;-72
2022/09/01 08:12:08;;;;;;;22.30;9.83;;;;;;;21.54;40.86;99474.97;1678711;83;21081;-74
2022/09/01 08:14:53;;;;;;;7.62;5.00;;;;;;;21.86;40.83;99472.70;1679361;83;20898;-74
2022/09/01 08:17:22;;;;;;;16.55;7.17;;;;;;;22.03;39.92;99473.95;1709166;83;20917;-72
2022/09/01 08:19:52;;;;;;;8.10;3.47;;;;;;;21.98;40.80;99475.52;1704052;83;20897;-72
2022/09/01 08:22:38;;;;;;;9.23;3.22;;;;;;;22.54;40.55;99478.56;1702737;83;20902;-72
2022/09/01 08:25:09;;;;;;;8.78;1.95;;;;;;;23.14;39.87;99481.30;1738203;80;21175;-71
2022/09/01 08:27:40;;;;;;;9.83;3.80;;;;;;;23.17;38.50;99485.30;1738221;80;20890;-74
2022/09/01 08:30:11;;;;;;;11.25;6.03;;;;;;;23.05;39.11;99476.48;1742936;80;20865;-72
2022/09/01 08:32:44;;;;;;;8.98;3.08;;;;;;;22.88;38.83;99472.78;1707185;82;20970;-73
2022/09/01 08:35:15;;;;;;;6.37;3.77;;;;;;;22.58;39.26;99465.25;1700028;83;21029;-73
2022/09/01 08:37:43;;;;;;;3.83;1.05;;;;;;;22.24;39.72;99473.19;1708057;83;21097;-72
2022/09/01 08:40:16;;;;;;;5.30;2.67;;;;;;;22.17;40.22;99464.14;1709105;83;21404;-75
2022/09/01 08:43:15;;;;;;;13.25;5.35;;;;;;;22.02;39.86;99472.91;1708067;83;20878;-73
2022/09/01 08:45:53;;;;;;;7.87;3.10;;;;;;;22.11;40.36;99466.83;1688262;83;20985;-72
2022/09/01 08:48:34;;;;;;;7.62;3.08;;;;;;;22.38;40.19;99470.19;1707175;83;20929;-72
2022/09/01 08:51:31;;;;;;;5.50;2.55;;;;;;;22.52;39.73;99468.55;1739808;80;21748;-71
2022/09/01 08:54:17;;;;;;;9.90;4.62;;;;;;;22.43;39.58;99472.72;1739596;81;21439;-71
2022/09/01 08:56:47;;;;;;;3.15;1.60;;;;;;;22.66;39.63;99468.50;1662511;85;20951;-73
2022/09/01 08:59:16;;;;;;;21.95;9.68;;;;;;;23.16;38.77;99477.66;1660438;85;20903;-73
2022/09/01 09:02:12;;;;;;;115.20;11.18;;;;;;;23.33;39.22;99474.70;1659814;85;21003;-72
2022/09/01 09:04:48;;;;;;;23.20;8.63;;;;;;;23.61;39.06;99473.23;1657593;85;21862;-73
2022/09/01 09:07:24;;;;;;;10.25;5.12;;;;;;;23.22;38.33;99468.64;1662183;85;21432;-74
2022/09/01 09:09:58;;;;;;;16.20;4.72;;;;;;;22.45;39.00;99469.08;1654327;85;20974;-73
2022/09/01 09:13:01;;;;;;;27.95;14.05;;;;;;;21.81;40.09;99464.70;1657451;86;20916;-71
2022/09/01 09:15:55;;;;;;;8.18;2.30;;;;;;;21.36;40.23;99451.56;1655816;85;21514;-73
2022/09/01 09:18:35;;;;;;;24.52;8.15;;;;;;;21.29;39.87;99452.09;1653178;85;21228;-72
2022/09/01 09:21:22;;;;;;;5.75;1.95;;;;;;;21.90;40.12;99451.80;1652486;85;21127;-71
2022/09/01 09:24:01;;;;;;;14.98;4.47;;;;;;;22.83;38.44;99457.95;1654840;85;21003;-69
2022/09/01 09:26:31;;;;;;;10.63;5.08;;;;;;;23.05;38.37;99450.48;1650586;85;20918;-71
2022/09/01 09:29:00;;;;;;;17.73;7.45;;;;;;;22.75;37.92;99446.51;1654618;85;20964;-71
2022/09/01 09:31:37;;;;;;;21.20;8.55;;;;;;;21.79;38.78;99457.40;1653872;85;21217;-71
2022/09/01 09:34:26;;;;;;;18.70;7.80;;;;;;;21.22;39.45;99451.00;1718065;81;20930;-72
2022/09/01 09:36:54;;;;;;;38.20;14.50;;;;;;;21.19;39.40;99446.97;1720285;81;20950;-71
2022/09/01 09:39:23;;;;;;;28.30;11.38;;;;;;;20.92;40.18;99449.00;1744665;80;20907;-74
2022/09/01 09:42:08;;;;;;;3.77;2.20;;;;;;;21.25;40.59;99448.41;1740055;81;20879;-72
2022/09/01 09:44:43;;;;;;;2.42;1.50;;;;;;;21.71;38.16;99445.40;1709091;82;21271;-72
2022/09/01 09:47:29;;;;;;;5.55;1.62;;;;;;;22.30;37.45;99441.79;1712671;82;20897;-72
2022/09/01 09:50:18;;;;;;;53.08;23.00;;;;;;;22.57;37.23;99453.30;1701873;83;20967;-71
2022/09/01 09:52:48;;;;;;;36.30;14.43;;;;;;;22.40;37.64;99457.78;1679051;83;21040;-69
2022/09/01 09:55:29;;;;;;;22.17;9.78;;;;;;;22.46;38.40;99455.62;1682803;84;21038;-70
2022/09/01 09:58:03;;;;;;;9.85;2.27;;;;;;;22.82;37.88;99459.64;1650576;85;21099;-72
2022/09/01 10:00:33;;;;;;;6.40;2.08;;;;;;;22.80;36.60;99459.17;1656322;84;21541;-72
2022/09/01 10:03:06;;;;;;;42.80;15.45;;;;;;;22.37;36.85;99450.83;1705484;82;21559;-73
2022/09/01 10:05:50;;;;;;;43.70;17.65;;;;;;;22.02;37.47;99460.06;1675941;83;20905;-72
2022/09/01 10:08:43;;;;;;;4.53;2.35;;;;;;;22.13;36.82;99456.94;1708158;82;20862;-70
2022/09/01 10:11:42;;;;;;;38.38;19.10;;;;;;;22.86;36.30;99460.58;1708597;82;21075;-71
2022/09/01 10:14:20;;;;;;;4.80;2.75;;;;;;;23.20;35.26;99453.95;1712633;82;21619;-76
2022/09/01 10:16:52;;;;;;;5.00;2.30;;;;;;;23.20;34.56;99451.75;1705970;83;20911;-74
2022/09/01 10:19:20;;;;;;;9.33;3.92;;;;;;;22.97;35.62;99458.98;1712071;82;20954;-71
2022/09/01 10:21:49;;;;;;;8.85;4.35;;;;;;;22.79;35.93;99459.75;1707972;82;20941;-72
2022/09/01 10:24:26;;;;;;;5.50;2.87;;;;;;;22.88;35.08;99464.57;1695208;83;21827;-74
2022/09/01 10:26:57;;;;;;;3.30;1.90;;;;;;;22.75;33.08;99460.76;1702810;83;20897;-69
2022/09/01 10:29:34;;;;;;;5.50;2.77;;;;;;;22.77;33.17;99459.86;1706090;83;20886;-72
2022/09/01 10:32:09;;;;;;;3.15;1.92;;;;;;;23.10;33.45;99462.57;1739825;81;20898;-71
2022/09/01 10:34:37;;;;;;;2.83;1.95;;;;;;;23.26;33.54;99459.98;1737572;80;20858;-73
2022/09/01 10:37:06;;;;;;;10.20;2.17;;;;;;;23.25;33.71;99464.67;1706179;83;21747;-73
2022/09/01 10:39:35;;;;;;;9.55;2.87;;;;;;;23.30;33.39;99450.75;1697450;83;20981;-72
2022/09/01 10:42:08;;;;;;;5.53;2.08;;;;;;;23.39;33.85;99456.69;1690873;83;20905;-71
2022/09/01 10:44:40;;;;;;;11.10;2.77;;;;;;;23.44;33.19;99446.86;1702250;83;21467;-73
2022/09/01 10:47:14;;;;;;;4.40;1.20;;;;;;;23.52;32.92;99461.03;1699570;83;21460;-73
2022/09/01 10:49:51;;;;;;;7.30;2.10;;;;;;;23.05;32.96;99447.73;1705009;83;21461;-70
2022/09/01 10:52:45;;;;;;;18.40;2.00;;;;;;;22.66;34.70;99445.23;1707103;83;28283;-71
2022/09/01 10:55:23;;;;;;;5.62;2.27;;;;;;;22.97;34.29;99440.41;1709049;83;20997;-70
2022/09/01 10:58:08;;;;;;;13.18;3.92;;;;;;;22.92;34.56;99443.36;1706742;83;20855;-73
2022/09/01 11:00:44;;;;;;;4.05;2.40;;;;;;;22.90;33.91;99447.22;1705714;82;20921;-72
2022/09/01 11:03:19;;;;;;;6.15;3.22;;;;;;;22.79;34.05;99448.81;1693029;83;21198;-75
2022/09/01 11:06:06;;;;;;;20.17;4.65;;;;;;;23.07;33.76;99447.63;1674926;84;20933;-70
2022/09/01 11:08:47;;;;;;;5.67;1.85;;;;;;;22.92;33.80;99447.47;1685782;83;20933;-69
2022/09/01 11:11:36;;;;;;;6.35;2.00;;;;;;;23.21;33.47;99439.67;1692338;83;20989;-70
2022/09/01 11:14:10;;;;;;;3.58;2.27;;;;;;;22.44;33.53;99454.62;1689951;83;20931;-70
2022/09/01 11:16:40;;;;;;;16.82;2.95;;;;;;;21.88;34.98;99440.94;1694685;83;21957;-69
2022/09/01 11:19:49;;;;;;;2.40;2.00;;;;;;;22.15;34.32;99450.00;1697221;83;20943;-72
2022/09/01 11:22:26;;;;;;;5.17;2.33;;;;;;;22.54;33.84;99447.11;1683555;83;20915;-70
2022/09/01 11:25:32;;;;;;;6.22;5.30;;;;;;;22.93;33.63;99452.61;1674406;83;21504;-69
2022/09/01 11:28:07;;;;;;;2.20;1.57;;;;;;;23.39;32.83;99458.05;1686704;83;20933;-70
2022/09/01 11:30:56;;;;;;;9.28;2.70;;;;;;;24.09;31.06;99455.96;1686513;83;21487;-70
2022/09/01 11:34:06;;;;;;;5.05;3.15;;;;;;;24.22;30.54;99463.57;1687378;83;20995;-70
2022/09/01 11:36:39;;;;;;;3.72;2.00;;;;;;;24.21;30.73;99461.20;1683326;83;21446;-71
2022/09/01 11:39:34;;;;;;;5.83;4.08;;;;;;;23.96;31.05;99460.67;1693064;83;20954;-72
2022/09/01 11:42:26;;;;;;;5.45;2.87;;;;;;;23.41;31.15;99455.77;1691736;83;21027;-69
2022/09/01 11:45:22;;;;;;;8.68;4.97;;;;;;;23.06;32.35;99438.41;1691611;83;21270;-75
2022/09/01 11:48:06;;;;;;;9.83;5.63;;;;;;;22.81;33.14;99439.70;1690252;83;21031;-71
2022/09/01 11:50:39;;;;;;;17.45;11.95;;;;;;;22.53;34.51;99448.26;1689956;82;20902;-74
2022/09/01 11:53:18;;;;;;;9.13;5.60;;;;;;;22.27;34.47;99442.47;1699745;83;21419;-73
2022/09/01 11:55:50;;;;;;;2.92;1.35;;;;;;;21.97;34.62;99446.58;1742679;81;20935;-70
2022/09/01 11:58:37;;;;;;;7.65;1.90;;;;;;;21.71;34.65;99445.40;1735592;81;21413;-71
2022/09/01 12:01:23;;;;;;;1.85;1.20;;;;;;;21.60;35.11;99429.94;1728650;80;20941;-69
2022/09/01 12:03:52;;;;;;;2.17;1.60;;;;;;;21.43;35.14;99436.86;1738451;80;20941;-69
2022/09/01 12:06:26;;;;;;;3.95;1.42;;;;;;;21.59;34.80;99439.84;1727971;81;20900;-70
2022/09/01 12:09:02;;;;;;;4.35;1.92;;;;;;;21.94;34.80;99430.85;1741006;80;20910;-70
2022/09/01 12:11:33;;;;;;;3.42;1.10;;;;;;;22.35;34.74;99432.59;1729832;81;21908;-73